This is the latest recevied weather packets stored in our database for station/object KF6ILA. If no packets are shown the sender has not sent any weather packets the latest 1 day(s).
| Time | Temp. | Humidity | Pressure | Rain* | Wind** | Luminosity | Snow |
|---|---|---|---|---|---|---|---|
| 1778036376 | 5.56° C | 95% | 1012.1 hPa | 0 mm | - | 0 W/m² | - |
| 1778036079 | 5.56° C | 95% | 1011.9 hPa | 0 mm | - | 0 W/m² | - |
| 1778035782 | 5.56° C | 95% | 1011.9 hPa | 0 mm | - | 0 W/m² | - |
| 1778035188 | 5.56° C | 94% | 1011.9 hPa | 0 mm | - | 0 W/m² | - |
| 1778034891 | 5.56° C | 94% | 1011.8 hPa | 0 mm | - | 0 W/m² | - |
| 1778034595 | 5.56° C | 93% | 1011.7 hPa | 0 mm | - | 0 W/m² | - |
| 1778034296 | 5.56° C | 93% | 1011.6 hPa | 0 mm | - | 5 W/m² | - |
| 1778033406 | 5.56° C | 92% | 1011.5 hPa | 0 mm | - | 11 W/m² | - |
| 1778033109 | 6.11° C | 91% | 1011.5 hPa | 0 mm | - | 14 W/m² | - |
| 1778032515 | 6.11° C | 90% | 1011.3 hPa | 0 mm | - | 26 W/m² | - |
| 1778032219 | 6.11° C | 89% | 1011.1 hPa | 0 mm | - | 26 W/m² | - |
| 1778031921 | 6.11° C | 88% | 1011.1 hPa | 0 mm | - | 26 W/m² | - |
| 1778031776 | 6.67° C | 87% | 1010.9 hPa | 0 mm | - | 26 W/m² | - |
| 1778031624 | 6.67° C | 87% | 1010.9 hPa | 0 mm | - | 26 W/m² | - |
| 1778031327 | 6.67° C | 86% | 1011 hPa | 0 mm | - | 35 W/m² | - |
| 1778031139 | 7.22° C | 85% | 1011.1 hPa | 0 mm | - | 72 W/m² | - |
| 1778030839 | 7.22° C | 84% | 1011.2 hPa | 0 mm | - | 58 W/m² | - |
| 1778030733 | 7.22° C | 84% | 1011.2 hPa | 0 mm | - | 58 W/m² | - |
| 1778030506 | 7.22° C | 84% | 1011.1 hPa | 0 mm | - | 86 W/m² | - |
| 1778030139 | 7.22° C | 83% | 1011.1 hPa | 0 mm | - | 202 W/m² | - |
| 1778027466 | 8.89° C | 80% | 1010.6 hPa | 0 mm | - | 137 W/m² | - |
| 1778027260 | 8.33° C | 81% | 1010.6 hPa | 0 mm | - | 489 W/m² | - |
| 1778025090 | 7.78° C | 84% | 1010.1 hPa | 0 mm | - | 626 W/m² | - |
| 1778020636 | 8.89° C | 82% | 1010.3 hPa | 0 mm | - | 974 W/m² | - |
| 1778017072 | 7.78° C | 91% | 1011.6 hPa | 0 mm | - | 492 W/m² | - |
* Rain latest hour (hover to see other rain measurements)
** Current wind speed in m/s (hover to see current wind gust speed)